createdAt,value
2019-05-13T00:01:07.165Z,0.40
2019-05-13T00:03:34.998Z,0.20
2019-05-13T00:06:04.146Z,0.20
2019-05-13T00:08:33.880Z,0.30
2019-05-13T00:11:04.363Z,0.37
2019-05-13T00:13:33.875Z,0.30
2019-05-13T00:16:03.787Z,0.40
2019-05-13T00:18:34.031Z,0.30
2019-05-13T00:21:03.623Z,0.20
2019-05-13T00:23:34.001Z,0.30
2019-05-13T00:26:03.743Z,0.20
2019-05-13T00:28:34.250Z,0.23
2019-05-13T00:31:03.556Z,0.23
2019-05-13T00:33:33.841Z,0.20
2019-05-13T00:36:04.091Z,0.43
2019-05-13T00:38:33.525Z,0.30
2019-05-13T00:41:03.668Z,0.33
2019-05-13T00:43:33.866Z,0.27
2019-05-13T00:46:03.906Z,0.20
2019-05-13T00:48:33.476Z,0.20
2019-05-13T00:51:03.773Z,0.20
2019-05-13T00:53:35.111Z,0.20
2019-05-13T00:56:04.077Z,0.20
2019-05-13T00:58:33.543Z,0.30
2019-05-13T01:01:03.586Z,0.20
2019-05-13T01:03:33.771Z,0.30
2019-05-13T01:06:04.281Z,0.20
2019-05-13T01:08:33.870Z,0.20
2019-05-13T01:11:04.258Z,0.20
2019-05-13T01:13:34.206Z,0.30
2019-05-13T01:16:05.777Z,0.23
2019-05-13T01:18:34.408Z,0.20
2019-05-13T01:21:04.411Z,0.20
2019-05-13T01:23:34.362Z,0.20
2019-05-13T01:26:04.067Z,0.50
2019-05-13T01:28:34.474Z,0.20
2019-05-13T01:31:04.697Z,0.20
2019-05-13T01:33:35.103Z,0.20
2019-05-13T01:36:05.306Z,0.20
2019-05-13T01:38:34.148Z,0.20
2019-05-13T01:41:04.441Z,0.20
2019-05-13T01:43:36.792Z,0.23
2019-05-13T01:46:05.959Z,0.13
2019-05-13T01:48:35.338Z,0.30
2019-05-13T01:51:04.174Z,0.20
2019-05-13T01:53:33.592Z,0.20
2019-05-13T01:56:03.949Z,0.30
2019-05-13T01:58:33.960Z,0.20
2019-05-13T02:01:04.968Z,0.30
2019-05-13T02:03:33.881Z,0.20
2019-05-13T02:06:03.756Z,0.20
2019-05-13T02:08:33.682Z,0.20
2019-05-13T02:11:04.289Z,0.20
2019-05-13T02:13:34.341Z,0.30
2019-05-13T02:16:04.107Z,0.40
2019-05-13T02:18:34.769Z,0.20
2019-05-13T02:21:05.390Z,0.30
2019-05-13T02:23:34.209Z,0.23
2019-05-13T02:26:04.397Z,0.20
2019-05-13T02:28:33.578Z,0.40
2019-05-13T02:31:02.432Z,0.20
2019-05-13T02:33:33.875Z,0.20
2019-05-13T02:36:03.474Z,0.40
2019-05-13T02:38:35.491Z,0.20
2019-05-13T02:41:03.231Z,0.20
2019-05-13T02:43:33.358Z,0.33
2019-05-13T02:46:04.195Z,0.20
2019-05-13T02:48:33.431Z,0.40
2019-05-13T02:51:03.690Z,0.20
2019-05-13T02:53:33.567Z,0.20
2019-05-13T02:56:03.281Z,0.23
2019-05-13T02:58:33.313Z,0.20
2019-05-13T03:01:03.301Z,0.30
2019-05-13T03:03:32.923Z,0.20
2019-05-13T03:06:02.865Z,0.30
2019-05-13T03:08:40.870Z,0.27
2019-05-13T03:11:03.130Z,0.43
2019-05-13T03:13:32.982Z,0.30
2019-05-13T03:16:03.563Z,0.50
2019-05-13T03:18:33.380Z,0.37
2019-05-13T03:21:03.581Z,0.20
2019-05-13T03:23:33.287Z,0.50
2019-05-13T03:26:03.179Z,0.20
2019-05-13T03:28:33.722Z,0.40
2019-05-13T03:31:06.546Z,0.30
2019-05-13T03:33:37.164Z,0.30
2019-05-13T03:36:06.437Z,0.30
2019-05-13T03:38:53.736Z,0.20
2019-05-13T03:41:06.234Z,0.20
2019-05-13T03:43:35.021Z,0.20
2019-05-13T03:46:04.495Z,0.27
2019-05-13T03:48:35.356Z,0.30
2019-05-13T03:51:04.881Z,0.20
2019-05-13T03:53:33.553Z,0.20
2019-05-13T03:56:03.065Z,0.40
2019-05-13T03:58:32.582Z,0.47
2019-05-13T04:01:02.880Z,0.20
2019-05-13T04:03:33.183Z,0.27
2019-05-13T04:06:03.525Z,0.20
2019-05-13T04:08:32.923Z,0.30
2019-05-13T04:11:03.019Z,0.30
2019-05-13T04:13:33.530Z,0.40
2019-05-13T04:16:03.914Z,0.40
2019-05-13T04:18:33.191Z,0.37
2019-05-13T04:21:02.980Z,0.80
2019-05-13T04:23:32.704Z,0.60
2019-05-13T04:26:03.143Z,0.30
2019-05-13T04:28:33.312Z,0.40
2019-05-13T04:31:03.603Z,0.30
2019-05-13T04:33:33.559Z,0.50
2019-05-13T04:36:02.870Z,0.33
2019-05-13T04:38:33.073Z,0.40
2019-05-13T04:41:04.307Z,0.57
2019-05-13T04:43:34.820Z,0.87
2019-05-13T04:46:03.518Z,0.90
2019-05-13T04:48:34.067Z,3.00
2019-05-13T04:51:03.323Z,1.50
2019-05-13T04:53:33.335Z,1.90
2019-05-13T04:56:03.308Z,1.27
2019-05-13T04:58:32.616Z,1.13
2019-05-13T05:01:23.743Z,0.67
2019-05-13T05:04:27.405Z,0.87
2019-05-13T05:07:02.920Z,0.80
2019-05-13T05:10:18.853Z,1.60
2019-05-13T05:13:12.829Z,2.27
2019-05-13T05:16:04.951Z,1.93
2019-05-13T05:18:48.457Z,0.90
2019-05-13T05:21:29.254Z,1.30
2019-05-13T05:24:13.116Z,0.90
2019-05-13T05:26:56.838Z,0.50
2019-05-13T05:29:44.878Z,0.97
2019-05-13T05:32:25.545Z,0.67
2019-05-13T05:35:22.317Z,0.63
2019-05-13T05:38:25.891Z,0.57
2019-05-13T05:40:52.500Z,0.93
2019-05-13T05:43:22.255Z,1.40
2019-05-13T05:45:54.710Z,1.50
2019-05-13T05:48:23.628Z,1.63
2019-05-13T05:50:54.738Z,1.30
2019-05-13T05:53:24.980Z,1.50
2019-05-13T05:55:55.063Z,1.13
2019-05-13T05:58:24.497Z,7.27
2019-05-13T06:00:55.252Z,14.03
2019-05-13T06:03:25.258Z,2.03
2019-05-13T06:05:54.242Z,5.73
2019-05-13T06:08:23.030Z,2.83
2019-05-13T06:10:53.821Z,1.60
2019-05-13T06:13:22.646Z,9.63
2019-05-13T06:15:51.559Z,2.20
2019-05-13T06:18:22.178Z,2.10
2019-05-13T06:20:51.356Z,7.70
2019-05-13T06:23:22.200Z,2.60
2019-05-13T06:25:52.672Z,1.73
2019-05-13T06:28:21.746Z,2.20
2019-05-13T06:30:51.970Z,1.97
2019-05-13T06:33:21.276Z,2.90
2019-05-13T06:35:52.149Z,1.73
2019-05-13T06:38:22.563Z,2.40
2019-05-13T06:41:00.458Z,2.47
2019-05-13T06:43:22.054Z,0.90
2019-05-13T06:45:51.396Z,0.80
2019-05-13T06:48:22.960Z,1.20
2019-05-13T06:50:52.630Z,0.40
2019-05-13T06:53:21.850Z,0.40
2019-05-13T06:55:52.320Z,0.63
2019-05-13T06:58:22.259Z,0.60
2019-05-13T07:00:51.695Z,1.07
2019-05-13T07:03:21.953Z,9.47
2019-05-13T07:05:52.442Z,3.23
2019-05-13T07:08:22.149Z,1.50
2019-05-13T07:10:51.603Z,0.80
2019-05-13T07:13:21.848Z,1.10
2019-05-13T07:15:52.123Z,1.10
2019-05-13T07:18:22.664Z,1.20
2019-05-13T07:20:53.101Z,1.47
2019-05-13T07:23:22.511Z,1.00
2019-05-13T07:25:52.425Z,0.83
2019-05-13T07:28:21.974Z,1.20
2019-05-13T07:30:51.607Z,3.53
2019-05-13T07:33:21.365Z,2.30
2019-05-13T07:35:57.093Z,2.13
2019-05-13T07:38:22.207Z,4.80
2019-05-13T07:40:54.397Z,2.90
2019-05-13T07:43:23.185Z,7.00
2019-05-13T07:45:51.877Z,2.93
2019-05-13T07:48:26.807Z,3.73
2019-05-13T07:50:59.554Z,3.13
2019-05-13T07:53:23.461Z,1.63
2019-05-13T07:55:52.573Z,1.50
2019-05-13T07:58:22.897Z,2.70
2019-05-13T08:00:52.267Z,2.80
2019-05-13T08:03:21.528Z,2.40
2019-05-13T08:05:51.912Z,2.33
2019-05-13T08:08:22.055Z,1.70
2019-05-13T08:10:51.977Z,1.60
2019-05-13T08:13:22.490Z,1.57
2019-05-13T08:15:54.431Z,1.27
2019-05-13T08:18:22.262Z,1.27
2019-05-13T08:20:52.428Z,1.67
2019-05-13T08:23:21.719Z,1.13
2019-05-13T08:25:51.453Z,1.27
2019-05-13T08:28:22.599Z,1.47
2019-05-13T08:30:52.443Z,1.20
2019-05-13T08:33:22.639Z,1.63
2019-05-13T08:35:54.056Z,2.10
2019-05-13T08:38:22.987Z,1.33
2019-05-13T08:40:51.963Z,2.33
2019-05-13T08:43:22.542Z,1.90
2019-05-13T08:45:53.539Z,2.10
2019-05-13T08:48:22.167Z,1.13
2019-05-13T08:50:52.207Z,2.40
2019-05-13T08:53:21.282Z,1.30
2019-05-13T08:55:51.773Z,1.50
2019-05-13T08:58:22.084Z,1.20
2019-05-13T09:00:58.855Z,1.13
2019-05-13T09:03:25.931Z,0.90
2019-05-13T09:05:56.842Z,0.97
2019-05-13T09:08:26.097Z,1.00
2019-05-13T09:10:56.883Z,1.40
2019-05-13T09:13:25.367Z,2.40
2019-05-13T09:15:54.252Z,1.73
2019-05-13T09:18:23.108Z,1.30
2019-05-13T09:20:52.263Z,1.20
2019-05-13T09:23:22.886Z,2.60
2019-05-13T09:25:52.339Z,0.97
2019-05-13T09:28:22.223Z,1.00
2019-05-13T09:30:53.151Z,0.90
2019-05-13T09:33:23.068Z,0.93
2019-05-13T09:35:53.596Z,1.00
2019-05-13T09:38:22.393Z,1.30
2019-05-13T09:40:52.987Z,1.20
2019-05-13T09:43:22.329Z,0.77
2019-05-13T09:45:52.329Z,1.90
2019-05-13T09:48:22.742Z,0.80
2019-05-13T09:50:51.911Z,0.60
2019-05-13T09:53:22.266Z,1.43
2019-05-13T09:55:52.434Z,1.10
2019-05-13T09:58:22.770Z,0.90
2019-05-13T10:00:52.903Z,0.60
2019-05-13T10:03:26.695Z,0.90
2019-05-13T10:05:52.252Z,0.90
2019-05-13T10:08:22.046Z,0.60
2019-05-13T10:10:52.787Z,1.00
2019-05-13T10:13:23.108Z,1.50
2019-05-13T10:15:51.709Z,1.43
2019-05-13T10:18:21.934Z,0.93
2019-05-13T10:20:59.222Z,0.50
2019-05-13T10:23:28.949Z,2.70
2019-05-13T10:26:03.239Z,2.20
2019-05-13T10:28:32.258Z,1.33
2019-05-13T10:31:02.670Z,2.33
2019-05-13T10:33:32.266Z,3.90
2019-05-13T10:36:03.178Z,2.63
2019-05-13T10:38:32.576Z,1.67
2019-05-13T10:41:03.796Z,2.43
2019-05-13T10:43:33.078Z,2.00
2019-05-13T10:46:02.939Z,2.17
2019-05-13T10:48:32.075Z,2.67
2019-05-13T10:51:02.285Z,2.50
2019-05-13T10:53:32.950Z,1.87
2019-05-13T10:56:03.320Z,3.80
2019-05-13T10:58:32.036Z,1.90
2019-05-13T11:01:02.772Z,1.70
2019-05-13T11:03:33.274Z,1.27
2019-05-13T11:06:02.407Z,2.00
2019-05-13T11:08:33.073Z,1.80
2019-05-13T11:11:02.457Z,1.43
2019-05-13T11:13:49.690Z,1.93
2019-05-13T11:16:02.569Z,1.70
2019-05-13T11:18:31.566Z,1.43
2019-05-13T11:21:02.045Z,1.50
2019-05-13T11:23:32.125Z,1.43
2019-05-13T11:26:03.223Z,1.13
2019-05-13T11:28:32.244Z,1.50
2019-05-13T11:31:03.496Z,0.70
2019-05-13T11:33:32.405Z,1.13
2019-05-13T11:36:03.220Z,1.07
2019-05-13T11:38:32.680Z,1.27
2019-05-13T11:41:02.697Z,0.80
2019-05-13T11:43:33.209Z,1.43
2019-05-13T11:46:02.541Z,1.33
2019-05-13T11:48:32.291Z,1.20
2019-05-13T11:51:03.939Z,1.00
2019-05-13T11:53:34.589Z,0.70
2019-05-13T11:56:03.840Z,1.40
2019-05-13T11:58:32.856Z,1.20
2019-05-13T12:01:03.020Z,1.33
2019-05-13T12:03:32.626Z,1.23
2019-05-13T12:06:02.535Z,1.00
2019-05-13T12:08:34.005Z,1.20
2019-05-13T12:11:05.066Z,1.77
2019-05-13T12:13:34.720Z,1.00
2019-05-13T12:16:05.047Z,1.60
2019-05-13T12:18:33.799Z,1.20
2019-05-13T12:21:03.757Z,1.73
2019-05-13T12:23:33.171Z,2.17
2019-05-13T12:26:04.192Z,1.00
2019-05-13T12:28:32.388Z,0.93
2019-05-13T12:31:03.277Z,1.33
2019-05-13T12:33:32.691Z,2.10
2019-05-13T12:36:02.187Z,1.40
2019-05-13T12:38:33.230Z,1.63
2019-05-13T12:41:05.203Z,1.27
2019-05-13T12:43:33.273Z,1.30
2019-05-13T12:46:03.140Z,1.50
2019-05-13T12:48:32.505Z,2.10
2019-05-13T12:51:02.969Z,1.53
2019-05-13T12:53:32.315Z,2.00
2019-05-13T12:56:03.287Z,1.83
2019-05-13T12:58:34.145Z,1.80
2019-05-13T13:01:03.237Z,1.47
2019-05-13T13:03:32.389Z,1.83
2019-05-13T13:06:22.603Z,2.50
2019-05-13T13:08:42.328Z,2.03
2019-05-13T13:11:06.532Z,3.60
2019-05-13T13:13:56.663Z,2.37
2019-05-13T13:16:05.779Z,2.23
2019-05-13T13:18:34.450Z,2.43
2019-05-13T13:21:07.325Z,1.97
2019-05-13T13:23:35.408Z,2.03
2019-05-13T13:26:12.995Z,1.70
2019-05-13T13:28:35.062Z,1.50
2019-05-13T13:31:05.761Z,1.43
2019-05-13T13:33:34.618Z,1.47
2019-05-13T13:36:05.081Z,1.47
2019-05-13T13:38:33.978Z,1.77
2019-05-13T13:41:05.018Z,1.83
2019-05-13T13:43:37.106Z,1.23
2019-05-13T13:46:11.628Z,1.70
2019-05-13T13:48:35.090Z,1.70
2019-05-13T13:51:04.813Z,1.73
2019-05-13T13:53:34.178Z,1.13
2019-05-13T13:56:02.871Z,1.47
2019-05-13T13:58:32.727Z,2.20
2019-05-13T14:01:11.709Z,1.27
2019-05-13T14:03:34.026Z,1.30
2019-05-13T14:06:06.094Z,1.80
2019-05-13T14:08:33.623Z,1.47
2019-05-13T14:11:02.394Z,1.93
2019-05-13T14:13:32.391Z,1.57
2019-05-13T14:16:01.974Z,1.53
2019-05-13T14:18:31.710Z,1.43
2019-05-13T14:21:03.112Z,1.40
2019-05-13T14:23:31.855Z,1.50
2019-05-13T14:26:00.967Z,1.20
2019-05-13T14:28:32.532Z,3.30
2019-05-13T14:31:01.903Z,1.80
2019-05-13T14:33:35.258Z,2.00
2019-05-13T14:36:04.388Z,1.70
2019-05-13T14:38:33.474Z,1.40
2019-05-13T14:41:03.394Z,1.87
2019-05-13T14:43:32.382Z,2.30
2019-05-13T14:46:02.430Z,2.57
2019-05-13T14:48:32.983Z,2.30
2019-05-13T14:51:02.165Z,3.00
2019-05-13T14:53:32.199Z,4.80
2019-05-13T14:56:06.486Z,2.50
2019-05-13T14:58:32.776Z,1.63
2019-05-13T15:01:12.527Z,1.73
2019-05-13T15:03:32.848Z,2.17
2019-05-13T15:06:02.259Z,1.83
2019-05-13T15:08:32.873Z,1.83
2019-05-13T15:11:02.158Z,4.63
2019-05-13T15:13:31.892Z,5.13
2019-05-13T15:16:01.163Z,3.50
2019-05-13T15:18:32.535Z,3.80
2019-05-13T15:21:01.717Z,2.63
2019-05-13T15:23:31.637Z,2.90
2019-05-13T15:26:02.238Z,7.40
2019-05-13T15:28:31.865Z,4.83
2019-05-13T15:31:01.504Z,3.43
2019-05-13T15:33:32.631Z,1.40
2019-05-13T15:36:01.626Z,2.73
2019-05-13T15:38:33.310Z,1.63
2019-05-13T15:41:02.116Z,1.80
2019-05-13T15:43:31.879Z,2.43
2019-05-13T15:46:03.444Z,1.70
2019-05-13T15:48:32.857Z,3.50
2019-05-13T15:51:02.331Z,4.27
2019-05-13T15:53:32.092Z,2.70
2019-05-13T15:56:02.538Z,2.40
2019-05-13T15:58:40.405Z,2.00
2019-05-13T16:01:04.497Z,4.53
2019-05-13T16:03:33.284Z,3.50
2019-05-13T16:06:05.021Z,3.33
2019-05-13T16:08:35.083Z,2.17
2019-05-13T16:11:03.821Z,2.77
2019-05-13T16:13:32.773Z,3.10
2019-05-13T16:16:02.021Z,2.20
2019-05-13T16:18:31.852Z,1.90
2019-05-13T16:21:01.738Z,2.30
2019-05-13T16:23:32.299Z,2.50
2019-05-13T16:26:01.812Z,3.80
2019-05-13T16:28:32.551Z,2.97
2019-05-13T16:31:02.809Z,2.30
2019-05-13T16:33:31.688Z,1.63
2019-05-13T16:36:02.602Z,1.90
2019-05-13T16:38:32.943Z,1.77
2019-05-13T16:41:03.617Z,1.97
2019-05-13T16:43:32.714Z,1.60
2019-05-13T16:46:03.469Z,2.53
2019-05-13T16:48:33.585Z,1.70
2019-05-13T16:51:02.360Z,2.20
2019-05-13T16:53:31.624Z,2.03
2019-05-13T16:56:01.761Z,1.97
2019-05-13T16:58:32.448Z,2.03
2019-05-13T17:01:02.446Z,1.70
2019-05-13T17:03:32.032Z,1.80
2019-05-13T17:06:02.034Z,1.80
2019-05-13T17:08:33.899Z,1.90
2019-05-13T17:11:02.673Z,2.67
2019-05-13T17:13:31.628Z,3.53
2019-05-13T17:16:01.953Z,3.20
2019-05-13T17:18:32.405Z,2.57
2019-05-13T17:21:01.410Z,3.07
2019-05-13T17:23:31.986Z,3.30
2019-05-13T17:26:02.620Z,5.30
2019-05-13T17:28:34.028Z,1.60
2019-05-13T17:31:02.298Z,1.33
2019-05-13T17:33:31.989Z,2.00
2019-05-13T17:36:02.003Z,1.77
2019-05-13T17:38:32.382Z,1.60
2019-05-13T17:41:02.168Z,2.57
2019-05-13T17:43:32.391Z,2.30
2019-05-13T17:46:01.655Z,2.23
2019-05-13T17:48:33.068Z,2.30
2019-05-13T17:51:01.459Z,2.00
2019-05-13T17:53:32.585Z,1.57
2019-05-13T17:56:02.439Z,1.00
2019-05-13T17:58:32.936Z,3.17
2019-05-13T18:01:04.697Z,3.00
2019-05-13T18:03:33.362Z,2.20
2019-05-13T18:06:02.639Z,2.63
2019-05-13T18:08:32.101Z,2.30
2019-05-13T18:11:02.397Z,2.60
2019-05-13T18:13:31.499Z,2.30
2019-05-13T18:16:03.380Z,2.37
2019-05-13T18:18:42.605Z,2.50
2019-05-13T18:21:04.027Z,2.50
2019-05-13T18:23:32.794Z,1.53
2019-05-13T18:26:02.993Z,1.20
2019-05-13T18:28:33.050Z,1.20
2019-05-13T18:31:01.986Z,1.70
2019-05-13T18:33:31.963Z,2.00
2019-05-13T18:36:01.824Z,1.50
2019-05-13T18:38:31.333Z,1.73
2019-05-13T18:41:02.041Z,1.60
2019-05-13T18:43:32.104Z,3.23
2019-05-13T18:46:02.041Z,4.93
2019-05-13T18:48:32.341Z,4.40
2019-05-13T18:51:02.900Z,2.93
2019-05-13T18:53:32.267Z,1.93
2019-05-13T18:56:01.957Z,2.03
2019-05-13T18:58:31.672Z,2.27
2019-05-13T19:01:03.139Z,1.47
2019-05-13T19:03:32.469Z,1.30
2019-05-13T19:06:01.331Z,1.50
2019-05-13T19:08:32.147Z,1.60
2019-05-13T19:11:01.138Z,1.77
2019-05-13T19:13:32.470Z,1.23
2019-05-13T19:16:02.316Z,1.93
2019-05-13T19:18:31.986Z,5.37
2019-05-13T19:21:01.882Z,4.73
2019-05-13T19:23:31.456Z,4.83
2019-05-13T19:26:01.995Z,3.80
2019-05-13T19:28:31.767Z,17.60
2019-05-13T19:31:02.226Z,18.03
2019-05-13T19:33:31.162Z,8.80
2019-05-13T19:36:01.429Z,6.40
2019-05-13T19:38:31.959Z,5.23
2019-05-13T19:41:01.821Z,3.00
2019-05-13T19:43:31.499Z,1.67
2019-05-13T19:46:01.475Z,0.97
2019-05-13T19:48:32.614Z,1.70
2019-05-13T19:51:01.709Z,1.20
2019-05-13T19:53:32.012Z,1.67
2019-05-13T19:56:01.392Z,2.23
2019-05-13T19:58:32.356Z,1.40
2019-05-13T20:01:00.962Z,1.33
2019-05-13T20:03:31.913Z,1.27
2019-05-13T20:06:02.204Z,1.07
2019-05-13T20:08:32.033Z,1.30
2019-05-13T20:11:02.061Z,1.20
2019-05-13T20:13:31.244Z,1.23
2019-05-13T20:16:01.487Z,1.07
2019-05-13T20:18:32.081Z,0.70
2019-05-13T20:21:01.292Z,1.27
2019-05-13T20:23:32.204Z,1.00
2019-05-13T20:26:01.022Z,0.97
2019-05-13T20:28:31.701Z,0.90
2019-05-13T20:31:01.898Z,0.77
2019-05-13T20:33:31.962Z,1.57
2019-05-13T20:36:01.551Z,1.17
2019-05-13T20:38:31.703Z,1.33
2019-05-13T20:41:01.335Z,0.77
2019-05-13T20:43:32.546Z,0.87
2019-05-13T20:46:02.050Z,1.47
2019-05-13T20:48:31.974Z,1.10
2019-05-13T20:51:02.907Z,0.87
2019-05-13T20:53:31.619Z,0.70
2019-05-13T20:56:01.805Z,1.13
2019-05-13T20:58:31.873Z,0.80
2019-05-13T21:01:02.331Z,2.27
2019-05-13T21:03:31.723Z,1.43
2019-05-13T21:06:00.415Z,1.17
2019-05-13T21:08:29.136Z,1.23
2019-05-13T21:10:57.734Z,1.30
2019-05-13T21:13:26.426Z,1.20
2019-05-13T21:15:55.059Z,1.20
2019-05-13T21:18:23.662Z,1.00
2019-05-13T21:20:52.347Z,0.97
2019-05-13T21:23:21.770Z,1.00
2019-05-13T21:25:51.057Z,1.03
2019-05-13T21:28:21.858Z,1.50
2019-05-13T21:30:51.463Z,1.57
2019-05-13T21:33:22.130Z,1.40
2019-05-13T21:35:51.288Z,1.40
2019-05-13T21:38:22.176Z,1.50
2019-05-13T21:40:52.221Z,1.30
2019-05-13T21:43:21.569Z,2.23
2019-05-13T21:45:52.281Z,1.80
2019-05-13T21:48:21.742Z,1.93
2019-05-13T21:50:51.607Z,1.70
2019-05-13T21:53:24.444Z,1.53
2019-05-13T21:55:52.112Z,0.97
2019-05-13T21:58:22.309Z,1.30
2019-05-13T22:00:52.045Z,0.93
2019-05-13T22:03:21.057Z,1.20
2019-05-13T22:05:51.529Z,1.40
2019-05-13T22:08:21.669Z,1.97
2019-05-13T22:10:52.404Z,1.30
2019-05-13T22:13:21.096Z,1.37
2019-05-13T22:15:52.176Z,1.27
2019-05-13T22:18:20.719Z,1.60
2019-05-13T22:20:52.775Z,1.00
2019-05-13T22:23:19.816Z,0.97
2019-05-13T22:25:48.495Z,1.40
2019-05-13T22:28:17.163Z,1.67
2019-05-13T22:30:45.782Z,1.37
2019-05-13T22:33:14.480Z,1.13
2019-05-13T22:35:43.088Z,1.20
2019-05-13T22:38:12.376Z,1.30
2019-05-13T22:40:42.039Z,1.07
2019-05-13T22:43:12.145Z,1.40
2019-05-13T22:45:41.940Z,1.13
2019-05-13T22:48:14.539Z,1.40
2019-05-13T22:50:43.193Z,1.70
2019-05-13T22:53:12.119Z,1.53
2019-05-13T22:55:41.808Z,1.47
2019-05-13T22:58:10.643Z,1.17
2019-05-13T23:00:39.330Z,1.40
2019-05-13T23:03:07.940Z,1.73
2019-05-13T23:05:36.647Z,1.90
2019-05-13T23:08:05.272Z,1.97
2019-05-13T23:10:33.948Z,2.70
2019-05-13T23:13:02.562Z,2.67
2019-05-13T23:15:31.270Z,2.03
2019-05-13T23:18:01.226Z,1.97
2019-05-13T23:20:31.792Z,1.93
2019-05-13T23:23:01.274Z,2.40
2019-05-13T23:25:32.044Z,2.07
2019-05-13T23:28:00.511Z,2.27
2019-05-13T23:30:31.108Z,2.93
2019-05-13T23:33:02.064Z,1.80
2019-05-13T23:35:32.096Z,1.80
2019-05-13T23:38:01.622Z,1.37
2019-05-13T23:40:31.587Z,1.70
2019-05-13T23:43:02.115Z,1.97
2019-05-13T23:45:31.315Z,2.00
2019-05-13T23:48:01.605Z,2.37
2019-05-13T23:50:32.075Z,2.00
2019-05-13T23:53:01.071Z,1.80
2019-05-13T23:55:31.966Z,1.70
2019-05-13T23:58:01.749Z,2.17
